IBE05ZK LPPR-LEMD
Flight info
| Callsign | IBE05ZK |
|---|---|
| Flight time | 0h 45m |
| Altitude | 28000 |
| Route | BELDU UL155 ADORO L155 ZMR |
| Aircraft | A320/M-SDE3FGHIRWY/LB1 |
Departure
| Time | 2026-05-04 14:55 |
|---|---|
| Airport | Francisco de Sá Carneiro Airport (LPPR) |
Arrival
| Time | 2026-05-04 15:41 |
|---|---|
| Airport | Adolfo Suárez Madrid–Barajas Airport (LEMD) |
| Time | Latitude | Longitude | Altitude | Speed | Heading |
|---|---|---|---|---|---|
| 2026-05-04 14:32 | 41.23637 | -8.67240 | 237 ft | 0 kts | 81° |
| 2026-05-04 14:47 | 41.23636 | -8.67249 | 240 ft | 4 kts | 83° |
| 2026-05-04 14:47 | 41.23635 | -8.67284 | 239 ft | 4 kts | 95° |
| 2026-05-04 14:47 | 41.23640 | -8.67318 | 236 ft | 4 kts | 122° |
| 2026-05-04 14:47 | 41.23654 | -8.67336 | 235 ft | 0 kts | 167° |
| 2026-05-04 14:49 | 41.23650 | -8.67335 | 236 ft | 4 kts | 168° |
| 2026-05-04 14:49 | 41.23616 | -8.67330 | 234 ft | 4 kts | 178° |
| 2026-05-04 14:50 | 41.23599 | -8.67334 | 234 ft | 2 kts | 197° |
| 2026-05-04 14:50 | 41.23580 | -8.67344 | 235 ft | 0 kts | 202° |
| 2026-05-04 14:52 | 41.23543 | -8.67368 | 235 ft | 15 kts | 213° |
| 2026-05-04 14:52 | 41.23437 | -8.67375 | 235 ft | 13 kts | 166° |
| 2026-05-04 14:52 | 41.23357 | -8.67381 | 235 ft | 11 kts | 214° |
| 2026-05-04 14:53 | 41.23327 | -8.67467 | 236 ft | 11 kts | 257° |
| 2026-05-04 14:53 | 41.23315 | -8.67547 | 237 ft | 6 kts | 258° |
| 2026-05-04 14:53 | 41.23308 | -8.67588 | 238 ft | 0 kts | 258° |
| 2026-05-04 14:54 | 41.23308 | -8.67594 | 238 ft | 4 kts | 258° |
| 2026-05-04 14:54 | 41.23308 | -8.67701 | 241 ft | 15 kts | 298° |
| 2026-05-04 14:54 | 41.23410 | -8.67756 | 237 ft | 21 kts | 348° |
| 2026-05-04 14:54 | 41.23786 | -8.67859 | 221 ft | 92 kts | 349° |
| 2026-05-04 14:55 | 41.24615 | -8.68078 | 206 ft | 149 kts | 348° |
| 2026-05-04 14:55 | 41.25726 | -8.68385 | 542 ft | 169 kts | 347° |
| 2026-05-04 14:55 | 41.26903 | -8.68642 | 1351 ft | 171 kts | 348° |
| 2026-05-04 14:55 | 41.28067 | -8.68913 | 2087 ft | 177 kts | 345° |
| 2026-05-04 14:56 | 41.29356 | -8.69260 | 2490 ft | 202 kts | 345° |
| 2026-05-04 14:56 | 41.30815 | -8.69663 | 2953 ft | 226 kts | 345° |
| 2026-05-04 14:56 | 41.32429 | -8.70109 | 3448 ft | 247 kts | 346° |
| 2026-05-04 14:56 | 41.34144 | -8.70572 | 4311 ft | 254 kts | 346° |
| 2026-05-04 14:57 | 41.35889 | -8.71035 | 5252 ft | 258 kts | 346° |
| 2026-05-04 14:57 | 41.37667 | -8.71485 | 6162 ft | 263 kts | 350° |
| 2026-05-04 14:57 | 41.39512 | -8.71325 | 7009 ft | 273 kts | 14° |
| 2026-05-04 14:57 | 41.41177 | -8.70048 | 7808 ft | 285 kts | 43° |
| 2026-05-04 14:58 | 41.42232 | -8.67781 | 8620 ft | 296 kts | 72° |
| 2026-05-04 14:58 | 41.42482 | -8.65040 | 9468 ft | 300 kts | 87° |
| 2026-05-04 14:58 | 41.42571 | -8.62243 | 10273 ft | 306 kts | 87° |
| 2026-05-04 14:58 | 41.42658 | -8.59304 | 10546 ft | 329 kts | 87° |
| 2026-05-04 14:59 | 41.42757 | -8.56167 | 10937 ft | 346 kts | 87° |
| 2026-05-04 14:59 | 41.42862 | -8.52930 | 11624 ft | 352 kts | 87° |
| 2026-05-04 14:59 | 41.43081 | -8.46320 | 13087 ft | 362 kts | 87° |
| 2026-05-04 15:00 | 41.43192 | -8.42942 | 13786 ft | 367 kts | 87° |
| 2026-05-04 15:00 | 41.43306 | -8.39516 | 14405 ft | 372 kts | 87° |
| 2026-05-04 15:00 | 41.43420 | -8.36055 | 15017 ft | 377 kts | 87° |
| 2026-05-04 15:01 | 41.43646 | -8.29052 | 15976 ft | 385 kts | 87° |
| 2026-05-04 15:01 | 41.43760 | -8.25465 | 16502 ft | 389 kts | 87° |
| 2026-05-04 15:01 | 41.43873 | -8.21848 | 17129 ft | 393 kts | 87° |
| 2026-05-04 15:01 | 41.43988 | -8.18192 | 17733 ft | 397 kts | 87° |
| 2026-05-04 15:02 | 41.44103 | -8.14489 | 18328 ft | 402 kts | 88° |
| 2026-05-04 15:02 | 41.44217 | -8.10747 | 18856 ft | 406 kts | 88° |
| 2026-05-04 15:02 | 41.44330 | -8.06959 | 19366 ft | 411 kts | 88° |
| 2026-05-04 15:02 | 41.44442 | -8.03143 | 19889 ft | 415 kts | 88° |
| 2026-05-04 15:03 | 41.44557 | -7.99275 | 20393 ft | 419 kts | 88° |
| 2026-05-04 15:03 | 41.44672 | -7.95387 | 20919 ft | 423 kts | 88° |
| 2026-05-04 15:03 | 41.44784 | -7.91451 | 21455 ft | 426 kts | 88° |
| 2026-05-04 15:03 | 41.44895 | -7.87470 | 21985 ft | 430 kts | 88° |
| 2026-05-04 15:04 | 41.45008 | -7.83465 | 22469 ft | 434 kts | 88° |
| 2026-05-04 15:04 | 41.45122 | -7.79430 | 22962 ft | 439 kts | 89° |
| 2026-05-04 15:04 | 41.45234 | -7.75338 | 23471 ft | 443 kts | 89° |
| 2026-05-04 15:04 | 41.45345 | -7.71217 | 23894 ft | 447 kts | 89° |
| 2026-05-04 15:05 | 41.45458 | -7.67072 | 24299 ft | 450 kts | 89° |
| 2026-05-04 15:05 | 41.45567 | -7.62945 | 24701 ft | 452 kts | 89° |
| 2026-05-04 15:05 | 41.45680 | -7.58688 | 25105 ft | 455 kts | 89° |
| 2026-05-04 15:05 | 41.45791 | -7.54454 | 25484 ft | 458 kts | 89° |
| 2026-05-04 15:06 | 41.45901 | -7.50250 | 25850 ft | 461 kts | 89° |
| 2026-05-04 15:06 | 41.46008 | -7.45913 | 26236 ft | 464 kts | 89° |
| 2026-05-04 15:06 | 41.46109 | -7.41657 | 26602 ft | 466 kts | 89° |
| 2026-05-04 15:07 | 41.46310 | -7.32966 | 27308 ft | 472 kts | 89° |
| 2026-05-04 15:07 | 41.46412 | -7.28578 | 27648 ft | 475 kts | 89° |
| 2026-05-04 15:07 | 41.46514 | -7.24170 | 27945 ft | 477 kts | 89° |
| 2026-05-04 15:07 | 41.46613 | -7.19780 | 27997 ft | 466 kts | 89° |
| 2026-05-04 15:08 | 41.46707 | -7.15513 | 27995 ft | 457 kts | 90° |
| 2026-05-04 15:08 | 41.46800 | -7.11299 | 27998 ft | 453 kts | 90° |
| 2026-05-04 15:08 | 41.46894 | -7.07103 | 27993 ft | 452 kts | 90° |
| 2026-05-04 15:08 | 41.46986 | -7.02920 | 27990 ft | 452 kts | 90° |
| 2026-05-04 15:09 | 41.47071 | -6.98737 | 27987 ft | 451 kts | 90° |
| 2026-05-04 15:09 | 41.47156 | -6.94557 | 27985 ft | 451 kts | 90° |
| 2026-05-04 15:09 | 41.47239 | -6.90377 | 27982 ft | 450 kts | 90° |
| 2026-05-04 15:10 | 41.47402 | -6.82031 | 27975 ft | 450 kts | 90° |
| 2026-05-04 15:10 | 41.47483 | -6.77867 | 27971 ft | 450 kts | 90° |
| 2026-05-04 15:10 | 41.47640 | -6.69521 | 27970 ft | 450 kts | 90° |
| 2026-05-04 15:11 | 41.47716 | -6.65356 | 27967 ft | 449 kts | 90° |
| 2026-05-04 15:11 | 41.47786 | -6.61193 | 27962 ft | 449 kts | 90° |
| 2026-05-04 15:11 | 41.47853 | -6.57032 | 27961 ft | 449 kts | 90° |
| 2026-05-04 15:11 | 41.47920 | -6.52876 | 27958 ft | 448 kts | 90° |
| 2026-05-04 15:12 | 41.47988 | -6.48708 | 27954 ft | 449 kts | 90° |
| 2026-05-04 15:12 | 41.48057 | -6.44547 | 27956 ft | 448 kts | 90° |
| 2026-05-04 15:12 | 41.48123 | -6.40392 | 27956 ft | 448 kts | 90° |
| 2026-05-04 15:12 | 41.48187 | -6.36247 | 27956 ft | 448 kts | 90° |
| 2026-05-04 15:13 | 41.48248 | -6.32145 | 27953 ft | 448 kts | 91° |
| 2026-05-04 15:13 | 41.48311 | -6.27986 | 27953 ft | 448 kts | 90° |
| 2026-05-04 15:13 | 41.48472 | -6.23842 | 27949 ft | 448 kts | 87° |
| 2026-05-04 15:13 | 41.48752 | -6.19709 | 27945 ft | 448 kts | 85° |
| 2026-05-04 15:14 | 41.49105 | -6.15565 | 27942 ft | 448 kts | 84° |
| 2026-05-04 15:14 | 41.49484 | -6.11429 | 27941 ft | 448 kts | 84° |
| 2026-05-04 15:14 | 41.49852 | -6.07314 | 27945 ft | 448 kts | 84° |
| 2026-05-04 15:14 | 41.50199 | -6.03178 | 27944 ft | 448 kts | 85° |
| 2026-05-04 15:15 | 41.50518 | -5.99052 | 27942 ft | 448 kts | 85° |
| 2026-05-04 15:15 | 41.50820 | -5.94919 | 27941 ft | 447 kts | 86° |
| 2026-05-04 15:15 | 41.51113 | -5.90788 | 27942 ft | 447 kts | 86° |
| 2026-05-04 15:16 | 41.51696 | -5.82530 | 27940 ft | 447 kts | 86° |
| 2026-05-04 15:16 | 41.51991 | -5.78397 | 27945 ft | 447 kts | 86° |
| 2026-05-04 15:16 | 41.52579 | -5.70135 | 27947 ft | 446 kts | 86° |
| 2026-05-04 15:17 | 41.52796 | -5.66014 | 27943 ft | 445 kts | 92° |
| 2026-05-04 15:17 | 41.51958 | -5.57918 | 27944 ft | 439 kts | 107° |
| 2026-05-04 15:17 | 41.51249 | -5.53958 | 27945 ft | 439 kts | 107° |
| 2026-05-04 15:18 | 41.50544 | -5.49992 | 27943 ft | 439 kts | 107° |
| 2026-05-04 15:18 | 41.49838 | -5.46019 | 27947 ft | 439 kts | 107° |
| 2026-05-04 15:18 | 41.49134 | -5.42059 | 27946 ft | 439 kts | 107° |
| 2026-05-04 15:19 | 41.47734 | -5.34184 | 27946 ft | 439 kts | 107° |
| 2026-05-04 15:19 | 41.47027 | -5.30222 | 27947 ft | 439 kts | 107° |
| 2026-05-04 15:19 | 41.45606 | -5.22313 | 27947 ft | 439 kts | 107° |
| 2026-05-04 15:20 | 41.44897 | -5.18356 | 27949 ft | 439 kts | 107° |
| 2026-05-04 15:20 | 41.44183 | -5.14401 | 27954 ft | 439 kts | 107° |
| 2026-05-04 15:20 | 41.43466 | -5.10449 | 27952 ft | 439 kts | 107° |
| 2026-05-04 15:20 | 41.42749 | -5.06512 | 27951 ft | 439 kts | 107° |
| 2026-05-04 15:21 | 41.42024 | -5.02545 | 27954 ft | 438 kts | 107° |
| 2026-05-04 15:21 | 41.41304 | -4.98605 | 27951 ft | 438 kts | 107° |
| 2026-05-04 15:21 | 41.39862 | -4.90720 | 27952 ft | 438 kts | 107° |
| 2026-05-04 15:22 | 41.39141 | -4.86771 | 27951 ft | 438 kts | 107° |
| 2026-05-04 15:22 | 41.38420 | -4.82833 | 27949 ft | 438 kts | 107° |
| 2026-05-04 15:22 | 41.36948 | -4.74861 | 26867 ft | 440 kts | 107° |
| 2026-05-04 15:23 | 41.36227 | -4.70955 | 26392 ft | 430 kts | 107° |
| 2026-05-04 15:23 | 41.35525 | -4.67138 | 25916 ft | 421 kts | 107° |
| 2026-05-04 15:23 | 41.34832 | -4.63384 | 25438 ft | 413 kts | 107° |
| 2026-05-04 15:23 | 41.34151 | -4.59711 | 24954 ft | 406 kts | 107° |
| 2026-05-04 15:24 | 41.32815 | -4.52547 | 24031 ft | 392 kts | 107° |
| 2026-05-04 15:24 | 41.31507 | -4.45624 | 23037 ft | 379 kts | 107° |
| 2026-05-04 15:25 | 41.30875 | -4.42264 | 22592 ft | 371 kts | 107° |
| 2026-05-04 15:25 | 41.30263 | -4.39000 | 22160 ft | 364 kts | 107° |
| 2026-05-04 15:25 | 41.29654 | -4.35758 | 21743 ft | 358 kts | 106° |
| 2026-05-04 15:26 | 41.28466 | -4.29461 | 20925 ft | 345 kts | 106° |
| 2026-05-04 15:26 | 41.27883 | -4.26389 | 20538 ft | 340 kts | 106° |
| 2026-05-04 15:26 | 41.26464 | -4.20464 | 19757 ft | 333 kts | 120° |
| 2026-05-04 15:27 | 41.25257 | -4.17862 | 19363 ft | 329 kts | 131° |
| 2026-05-04 15:27 | 41.22181 | -4.13413 | 18608 ft | 327 kts | 137° |
| 2026-05-04 15:28 | 41.19061 | -4.09063 | 17822 ft | 327 kts | 137° |
| 2026-05-04 15:28 | 41.17498 | -4.06883 | 17447 ft | 326 kts | 137° |
| 2026-05-04 15:28 | 41.14385 | -4.02549 | 16705 ft | 324 kts | 137° |
| 2026-05-04 15:29 | 41.12829 | -4.00383 | 16337 ft | 323 kts | 137° |
| 2026-05-04 15:30 | 41.06644 | -3.91791 | 14872 ft | 321 kts | 137° |
| 2026-05-04 15:30 | 41.02013 | -3.85379 | 13800 ft | 320 kts | 136° |
| 2026-05-04 15:31 | 40.99069 | -3.81179 | 13499 ft | 304 kts | 128° |
| 2026-05-04 15:31 | 40.98093 | -3.78727 | 13355 ft | 299 kts | 110° |
| 2026-05-04 15:32 | 40.97483 | -3.71636 | 12574 ft | 287 kts | 95° |
| 2026-05-04 15:32 | 40.96947 | -3.65599 | 11653 ft | 281 kts | 110° |
| 2026-05-04 15:33 | 40.95873 | -3.61558 | 10845 ft | 276 kts | 118° |
| 2026-05-04 15:34 | 40.91544 | -3.57720 | 9296 ft | 252 kts | 182° |
| 2026-05-04 15:34 | 40.89809 | -3.57714 | 8878 ft | 249 kts | 183° |
| 2026-05-04 15:34 | 40.86171 | -3.57676 | 8363 ft | 251 kts | 183° |
| 2026-05-04 15:35 | 40.82815 | -3.57656 | 7938 ft | 240 kts | 183° |
| 2026-05-04 15:35 | 40.81139 | -3.57648 | 7629 ft | 243 kts | 183° |
| 2026-05-04 15:35 | 40.79434 | -3.57638 | 7305 ft | 246 kts | 182° |
| 2026-05-04 15:36 | 40.76027 | -3.57618 | 6670 ft | 245 kts | 182° |
| 2026-05-04 15:36 | 40.74323 | -3.57608 | 6351 ft | 244 kts | 182° |
| 2026-05-04 15:36 | 40.72625 | -3.57598 | 6022 ft | 244 kts | 182° |
| 2026-05-04 15:37 | 40.70933 | -3.57588 | 5691 ft | 242 kts | 183° |
| 2026-05-04 15:37 | 40.69250 | -3.57578 | 5369 ft | 241 kts | 182° |
| 2026-05-04 15:37 | 40.67583 | -3.57568 | 5054 ft | 238 kts | 182° |
| 2026-05-04 15:37 | 40.65922 | -3.57558 | 4737 ft | 238 kts | 183° |
| 2026-05-04 15:38 | 40.64275 | -3.57549 | 4394 ft | 236 kts | 182° |
| 2026-05-04 15:38 | 40.62644 | -3.57539 | 4069 ft | 231 kts | 182° |
| 2026-05-04 15:38 | 40.61100 | -3.57529 | 3780 ft | 214 kts | 182° |
| 2026-05-04 15:38 | 40.59645 | -3.57520 | 3502 ft | 205 kts | 183° |
| 2026-05-04 15:39 | 40.58280 | -3.57512 | 3245 ft | 188 kts | 183° |
| 2026-05-04 15:39 | 40.57040 | -3.57503 | 2991 ft | 168 kts | 183° |
| 2026-05-04 15:39 | 40.54924 | -3.57467 | 2493 ft | 140 kts | 187° |
| 2026-05-04 15:40 | 40.53951 | -3.57467 | 2266 ft | 139 kts | 187° |
| 2026-05-04 15:40 | 40.53014 | -3.57460 | 2127 ft | 135 kts | 187° |
| 2026-05-04 15:40 | 40.52073 | -3.57468 | 2037 ft | 135 kts | 186° |
| 2026-05-04 15:40 | 40.51184 | -3.57482 | 1998 ft | 110 kts | 180° |
| 2026-05-04 15:41 | 40.50588 | -3.57471 | 1993 ft | 60 kts | 179° |
| 2026-05-04 15:41 | 40.50312 | -3.57538 | 1990 ft | 31 kts | 207° |
| 2026-05-04 15:41 | 40.50152 | -3.57655 | 1986 ft | 23 kts | 206° |
| 2026-05-04 15:41 | 40.50006 | -3.57690 | 1986 ft | 21 kts | 186° |
| 2026-05-04 15:42 | 40.49861 | -3.57687 | 1986 ft | 21 kts | 180° |
| 2026-05-04 15:42 | 40.49741 | -3.57721 | 1989 ft | 12 kts | 250° |
| 2026-05-04 15:42 | 40.49736 | -3.57811 | 1994 ft | 9 kts | 267° |
| 2026-05-04 15:42 | 40.49736 | -3.57905 | 1998 ft | 10 kts | 270° |
| 2026-05-04 15:43 | 40.49736 | -3.58037 | 2002 ft | 25 kts | 269° |
| 2026-05-04 15:43 | 40.49730 | -3.58318 | 2012 ft | 29 kts | 272° |
| 2026-05-04 15:43 | 40.49732 | -3.58555 | 2019 ft | 22 kts | 269° |
| 2026-05-04 15:43 | 40.49654 | -3.58677 | 2025 ft | 17 kts | 246° |
| 2026-05-04 15:44 | 40.49648 | -3.58827 | 2022 ft | 17 kts | 269° |
| 2026-05-04 15:44 | 40.49565 | -3.58885 | 2022 ft | 16 kts | 179° |
| 2026-05-04 15:44 | 40.49452 | -3.58884 | 2025 ft | 17 kts | 180° |
| 2026-05-04 15:44 | 40.49336 | -3.58882 | 2022 ft | 13 kts | 179° |
| 2026-05-04 15:45 | 40.49310 | -3.58947 | 2022 ft | 4 kts | 271° |
| 2026-05-04 15:45 | 40.49310 | -3.58965 | 2030 ft | 0 kts | 271° |